sensor_id;sensor_type;location;lat;lon;timestamp;temperature;humidity
34147;DHT22;20423;49.448;9.056;2022-08-19T00:02:08;18.00;99.90
34147;DHT22;20423;49.448;9.056;2022-08-19T00:04:35;18.00;99.90
34147;DHT22;20423;49.448;9.056;2022-08-19T00:07:05;18.00;99.90
34147;DHT22;20423;49.448;9.056;2022-08-19T00:09:31;18.00;99.90
34147;DHT22;20423;49.448;9.056;2022-08-19T00:11:58;17.90;99.90
34147;DHT22;20423;49.448;9.056;2022-08-19T00:14:25;17.90;99.90
34147;DHT22;20423;49.448;9.056;2022-08-19T00:17:05;17.80;99.90
34147;DHT22;20423;49.448;9.056;2022-08-19T00:19:32;17.80;99.90
34147;DHT22;20423;49.448;9.056;2022-08-19T00:22:32;17.80;99.90
34147;DHT22;20423;49.448;9.056;2022-08-19T00:24:58;17.80;99.90
34147;DHT22;20423;49.448;9.056;2022-08-19T00:27:24;17.80;99.90
34147;DHT22;20423;49.448;9.056;2022-08-19T00:29:50;17.80;99.90
34147;DHT22;20423;49.448;9.056;2022-08-19T00:32:16;17.80;99.90
34147;DHT22;20423;49.448;9.056;2022-08-19T00:34:41;17.70;99.90
34147;DHT22;20423;49.448;9.056;2022-08-19T00:37:07;17.70;99.90
34147;DHT22;20423;49.448;9.056;2022-08-19T00:39:33;17.70;99.90
34147;DHT22;20423;49.448;9.056;2022-08-19T00:42:11;17.60;99.90
34147;DHT22;20423;49.448;9.056;2022-08-19T00:44:37;17.50;99.90
34147;DHT22;20423;49.448;9.056;2022-08-19T00:47:03;17.50;99.90
34147;DHT22;20423;49.448;9.056;2022-08-19T00:49:32;17.40;99.90
34147;DHT22;20423;49.448;9.056;2022-08-19T00:52:04;17.50;99.90
34147;DHT22;20423;49.448;9.056;2022-08-19T00:54:32;17.50;99.90
34147;DHT22;20423;49.448;9.056;2022-08-19T00:56:59;17.50;99.90
34147;DHT22;20423;49.448;9.056;2022-08-19T00:59:27;17.60;99.90
34147;DHT22;20423;49.448;9.056;2022-08-19T01:01:53;17.60;99.90
34147;DHT22;20423;49.448;9.056;2022-08-19T01:04:19;17.60;99.90
34147;DHT22;20423;49.448;9.056;2022-08-19T01:06:44;17.60;99.90
34147;DHT22;20423;49.448;9.056;2022-08-19T01:09:10;17.60;99.90
34147;DHT22;20423;49.448;9.056;2022-08-19T01:11:40;17.60;99.90
34147;DHT22;20423;49.448;9.056;2022-08-19T01:14:07;17.60;99.90
34147;DHT22;20423;49.448;9.056;2022-08-19T01:16:34;17.60;99.90
34147;DHT22;20423;49.448;9.056;2022-08-19T01:19:00;17.50;99.90
34147;DHT22;20423;49.448;9.056;2022-08-19T01:21:40;17.50;99.90
34147;DHT22;20423;49.448;9.056;2022-08-19T01:24:08;17.50;99.90
34147;DHT22;20423;49.448;9.056;2022-08-19T01:26:40;17.50;99.90
34147;DHT22;20423;49.448;9.056;2022-08-19T01:29:07;17.50;99.90
34147;DHT22;20423;49.448;9.056;2022-08-19T01:31:34;17.50;99.90
34147;DHT22;20423;49.448;9.056;2022-08-19T01:34:01;17.50;99.90
34147;DHT22;20423;49.448;9.056;2022-08-19T01:36:29;17.60;99.90
34147;DHT22;20423;49.448;9.056;2022-08-19T01:38:55;17.60;99.90
34147;DHT22;20423;49.448;9.056;2022-08-19T01:41:21;17.60;99.90
34147;DHT22;20423;49.448;9.056;2022-08-19T01:44:01;17.60;99.90
34147;DHT22;20423;49.448;9.056;2022-08-19T01:46:30;17.60;99.90
34147;DHT22;20423;49.448;9.056;2022-08-19T01:48:56;17.60;99.90
34147;DHT22;20423;49.448;9.056;2022-08-19T01:51:22;17.60;99.90
34147;DHT22;20423;49.448;9.056;2022-08-19T01:53:49;17.60;99.90
34147;DHT22;20423;49.448;9.056;2022-08-19T01:56:17;17.60;99.90
34147;DHT22;20423;49.448;9.056;2022-08-19T01:58:55;17.60;99.90
34147;DHT22;20423;49.448;9.056;2022-08-19T02:01:21;17.60;99.90
34147;DHT22;20423;49.448;9.056;2022-08-19T02:03:47;17.60;99.90
34147;DHT22;20423;49.448;9.056;2022-08-19T02:10:06;17.50;99.90
34147;DHT22;20423;49.448;9.056;2022-08-19T02:12:32;17.40;99.90
34147;DHT22;20423;49.448;9.056;2022-08-19T02:15:05;17.40;99.90
34147;DHT22;20423;49.448;9.056;2022-08-19T02:17:32;17.40;99.90
34147;DHT22;20423;49.448;9.056;2022-08-19T02:19:58;17.40;99.90
34147;DHT22;20423;49.448;9.056;2022-08-19T02:22:24;17.40;99.90
34147;DHT22;20423;49.448;9.056;2022-08-19T02:24:52;17.40;99.90
34147;DHT22;20423;49.448;9.056;2022-08-19T02:27:17;17.40;99.90
34147;DHT22;20423;49.448;9.056;2022-08-19T02:29:46;17.40;99.90
34147;DHT22;20423;49.448;9.056;2022-08-19T02:32:12;17.50;99.90
34147;DHT22;20423;49.448;9.056;2022-08-19T02:34:39;17.40;99.90
34147;DHT22;20423;49.448;9.056;2022-08-19T02:37:05;17.40;99.90
34147;DHT22;20423;49.448;9.056;2022-08-19T02:39:31;17.40;99.90
34147;DHT22;20423;49.448;9.056;2022-08-19T02:41:56;17.40;99.90
34147;DHT22;20423;49.448;9.056;2022-08-19T02:44:59;17.40;99.90
34147;DHT22;20423;49.448;9.056;2022-08-19T02:47:25;17.40;99.90
34147;DHT22;20423;49.448;9.056;2022-08-19T02:49:51;17.30;99.90
34147;DHT22;20423;49.448;9.056;2022-08-19T02:52:17;17.20;99.90
34147;DHT22;20423;49.448;9.056;2022-08-19T02:54:43;17.20;99.90
34147;DHT22;20423;49.448;9.056;2022-08-19T02:57:10;17.20;99.90
34147;DHT22;20423;49.448;9.056;2022-08-19T03:02:42;17.00;99.90
34147;DHT22;20423;49.448;9.056;2022-08-19T03:05:09;16.90;99.90
34147;DHT22;20423;49.448;9.056;2022-08-19T03:08:00;16.90;99.90
34147;DHT22;20423;49.448;9.056;2022-08-19T03:10:26;16.80;99.90
34147;DHT22;20423;49.448;9.056;2022-08-19T03:12:52;16.80;99.90
34147;DHT22;20423;49.448;9.056;2022-08-19T03:15:18;16.70;99.90
34147;DHT22;20423;49.448;9.056;2022-08-19T03:17:59;16.70;99.90
34147;DHT22;20423;49.448;9.056;2022-08-19T03:20:24;16.70;99.90
34147;DHT22;20423;49.448;9.056;2022-08-19T03:22:51;16.70;99.90
34147;DHT22;20423;49.448;9.056;2022-08-19T03:25:17;16.60;99.90
34147;DHT22;20423;49.448;9.056;2022-08-19T03:27:43;16.60;99.90
34147;DHT22;20423;49.448;9.056;2022-08-19T03:30:10;16.60;99.90
34147;DHT22;20423;49.448;9.056;2022-08-19T03:32:36;16.60;99.90
34147;DHT22;20423;49.448;9.056;2022-08-19T03:35:02;16.60;99.90
34147;DHT22;20423;49.448;9.056;2022-08-19T03:37:27;16.60;99.90
34147;DHT22;20423;49.448;9.056;2022-08-19T03:40:27;16.70;99.90
34147;DHT22;20423;49.448;9.056;2022-08-19T03:42:55;16.70;99.90
34147;DHT22;20423;49.448;9.056;2022-08-19T03:45:21;16.80;99.90
34147;DHT22;20423;49.448;9.056;2022-08-19T03:47:46;16.80;99.90
34147;DHT22;20423;49.448;9.056;2022-08-19T03:50:12;16.90;99.90
34147;DHT22;20423;49.448;9.056;2022-08-19T03:52:38;16.90;99.90
34147;DHT22;20423;49.448;9.056;2022-08-19T03:55:05;17.00;99.90
34147;DHT22;20423;49.448;9.056;2022-08-19T03:57:31;17.00;99.90
34147;DHT22;20423;49.448;9.056;2022-08-19T03:59:58;17.10;99.90
34147;DHT22;20423;49.448;9.056;2022-08-19T04:02:23;17.10;99.90
34147;DHT22;20423;49.448;9.056;2022-08-19T04:04:53;17.00;99.90
34147;DHT22;20423;49.448;9.056;2022-08-19T04:07:19;17.10;99.90
34147;DHT22;20423;49.448;9.056;2022-08-19T04:09:47;17.10;99.90
34147;DHT22;20423;49.448;9.056;2022-08-19T04:12:28;17.10;99.90
34147;DHT22;20423;49.448;9.056;2022-08-19T04:14:54;17.10;99.90
34147;DHT22;20423;49.448;9.056;2022-08-19T04:17:19;17.10;99.90
34147;DHT22;20423;49.448;9.056;2022-08-19T04:20:04;17.10;99.90
34147;DHT22;20423;49.448;9.056;2022-08-19T04:22:30;17.00;99.90
34147;DHT22;20423;49.448;9.056;2022-08-19T04:24:55;17.00;99.90
34147;DHT22;20423;49.448;9.056;2022-08-19T04:27:21;17.00;99.90
34147;DHT22;20423;49.448;9.056;2022-08-19T04:29:47;17.00;99.90
34147;DHT22;20423;49.448;9.056;2022-08-19T04:32:13;16.90;99.90
34147;DHT22;20423;49.448;9.056;2022-08-19T04:34:40;16.90;99.90
34147;DHT22;20423;49.448;9.056;2022-08-19T04:37:08;17.00;99.90
34147;DHT22;20423;49.448;9.056;2022-08-19T04:39:38;17.00;99.90
34147;DHT22;20423;49.448;9.056;2022-08-19T04:42:22;17.00;99.90
34147;DHT22;20423;49.448;9.056;2022-08-19T04:45:12;17.00;99.90
34147;DHT22;20423;49.448;9.056;2022-08-19T04:47:40;17.10;99.90
34147;DHT22;20423;49.448;9.056;2022-08-19T04:50:07;17.10;99.90
34147;DHT22;20423;49.448;9.056;2022-08-19T04:52:33;17.10;99.90
34147;DHT22;20423;49.448;9.056;2022-08-19T04:54:59;17.10;99.90
34147;DHT22;20423;49.448;9.056;2022-08-19T05:01:18;17.20;99.90
34147;DHT22;20423;49.448;9.056;2022-08-19T05:03:45;17.20;99.90
34147;DHT22;20423;49.448;9.056;2022-08-19T05:06:13;17.20;99.90
34147;DHT22;20423;49.448;9.056;2022-08-19T05:08:40;17.20;99.90
34147;DHT22;20423;49.448;9.056;2022-08-19T05:11:22;17.20;99.90
34147;DHT22;20423;49.448;9.056;2022-08-19T05:13:48;17.20;99.90
34147;DHT22;20423;49.448;9.056;2022-08-19T05:16:16;17.20;99.90
34147;DHT22;20423;49.448;9.056;2022-08-19T05:18:42;17.20;99.90
34147;DHT22;20423;49.448;9.056;2022-08-19T05:21:27;17.20;99.90
34147;DHT22;20423;49.448;9.056;2022-08-19T05:24:12;17.10;99.90
34147;DHT22;20423;49.448;9.056;2022-08-19T05:26:41;17.20;99.90
34147;DHT22;20423;49.448;9.056;2022-08-19T05:29:08;17.30;99.90
34147;DHT22;20423;49.448;9.056;2022-08-19T05:31:36;17.30;99.90
34147;DHT22;20423;49.448;9.056;2022-08-19T05:34:02;17.30;99.90
34147;DHT22;20423;49.448;9.056;2022-08-19T05:36:34;17.40;99.90
34147;DHT22;20423;49.448;9.056;2022-08-19T05:39:00;17.40;99.90
34147;DHT22;20423;49.448;9.056;2022-08-19T05:41:26;17.50;99.90
34147;DHT22;20423;49.448;9.056;2022-08-19T05:44:00;17.60;99.90
34147;DHT22;20423;49.448;9.056;2022-08-19T05:46:26;17.70;99.90
34147;DHT22;20423;49.448;9.056;2022-08-19T05:48:52;17.80;99.90
34147;DHT22;20423;49.448;9.056;2022-08-19T05:51:22;17.90;99.90
34147;DHT22;20423;49.448;9.056;2022-08-19T05:53:48;17.90;99.90
34147;DHT22;20423;49.448;9.056;2022-08-19T05:56:15;18.00;99.90
34147;DHT22;20423;49.448;9.056;2022-08-19T05:58:42;18.00;99.90
34147;DHT22;20423;49.448;9.056;2022-08-19T06:01:12;18.10;99.90
34147;DHT22;20423;49.448;9.056;2022-08-19T06:03:38;18.00;99.90
34147;DHT22;20423;49.448;9.056;2022-08-19T06:06:08;18.10;99.90
34147;DHT22;20423;49.448;9.056;2022-08-19T06:08:35;18.00;99.90
34147;DHT22;20423;49.448;9.056;2022-08-19T06:11:21;18.00;99.90
34147;DHT22;20423;49.448;9.056;2022-08-19T06:13:49;18.00;99.90
34147;DHT22;20423;49.448;9.056;2022-08-19T06:16:17;18.00;99.90
34147;DHT22;20423;49.448;9.056;2022-08-19T06:18:52;18.00;99.90
34147;DHT22;20423;49.448;9.056;2022-08-19T06:21:23;18.00;99.90
34147;DHT22;20423;49.448;9.056;2022-08-19T06:23:49;18.10;99.90
34147;DHT22;20423;49.448;9.056;2022-08-19T06:26:18;18.10;99.90
34147;DHT22;20423;49.448;9.056;2022-08-19T06:28:45;18.20;99.90
34147;DHT22;20423;49.448;9.056;2022-08-19T06:31:19;18.20;99.90
34147;DHT22;20423;49.448;9.056;2022-08-19T06:33:47;18.30;99.90
34147;DHT22;20423;49.448;9.056;2022-08-19T06:38:56;18.40;99.90
34147;DHT22;20423;49.448;9.056;2022-08-19T06:41:24;18.30;99.90
34147;DHT22;20423;49.448;9.056;2022-08-19T06:43:50;18.20;99.90
34147;DHT22;20423;49.448;9.056;2022-08-19T06:46:17;18.30;99.90
34147;DHT22;20423;49.448;9.056;2022-08-19T06:48:45;18.40;99.90
34147;DHT22;20423;49.448;9.056;2022-08-19T06:51:13;18.40;99.90
34147;DHT22;20423;49.448;9.056;2022-08-19T06:53:41;18.50;99.90
34147;DHT22;20423;49.448;9.056;2022-08-19T06:56:11;18.50;99.90
34147;DHT22;20423;49.448;9.056;2022-08-19T06:58:37;18.40;99.90
34147;DHT22;20423;49.448;9.056;2022-08-19T07:01:04;18.30;99.90
34147;DHT22;20423;49.448;9.056;2022-08-19T07:03:32;18.30;99.90
34147;DHT22;20423;49.448;9.056;2022-08-19T07:06:07;18.10;99.90
34147;DHT22;20423;49.448;9.056;2022-08-19T07:08:35;18.10;99.90
34147;DHT22;20423;49.448;9.056;2022-08-19T07:11:06;18.20;99.90
34147;DHT22;20423;49.448;9.056;2022-08-19T07:13:33;18.20;99.90
34147;DHT22;20423;49.448;9.056;2022-08-19T07:16:06;18.20;99.90
34147;DHT22;20423;49.448;9.056;2022-08-19T07:18:32;18.20;99.90
34147;DHT22;20423;49.448;9.056;2022-08-19T07:21:15;18.30;99.90
34147;DHT22;20423;49.448;9.056;2022-08-19T07:23:42;18.30;99.90
34147;DHT22;20423;49.448;9.056;2022-08-19T07:26:11;18.30;99.90
34147;DHT22;20423;49.448;9.056;2022-08-19T07:28:37;18.40;99.90
34147;DHT22;20423;49.448;9.056;2022-08-19T07:31:09;18.50;99.90
34147;DHT22;20423;49.448;9.056;2022-08-19T07:33:35;18.60;99.90
34147;DHT22;20423;49.448;9.056;2022-08-19T07:36:06;18.60;99.90
34147;DHT22;20423;49.448;9.056;2022-08-19T07:38:33;18.80;99.90
34147;DHT22;20423;49.448;9.056;2022-08-19T07:41:00;19.10;99.90
34147;DHT22;20423;49.448;9.056;2022-08-19T07:43:27;19.40;99.90
34147;DHT22;20423;49.448;9.056;2022-08-19T07:45:54;19.80;99.90
34147;DHT22;20423;49.448;9.056;2022-08-19T07:48:23;20.30;99.90
34147;DHT22;20423;49.448;9.056;2022-08-19T07:50:55;20.50;99.90
34147;DHT22;20423;49.448;9.056;2022-08-19T07:53:22;20.70;99.90
34147;DHT22;20423;49.448;9.056;2022-08-19T07:55:48;20.90;99.90
34147;DHT22;20423;49.448;9.056;2022-08-19T07:58:17;21.10;99.90
34147;DHT22;20423;49.448;9.056;2022-08-19T08:00:45;21.00;99.90
34147;DHT22;20423;49.448;9.056;2022-08-19T08:03:13;21.00;99.90
34147;DHT22;20423;49.448;9.056;2022-08-19T08:05:38;20.90;99.90
34147;DHT22;20423;49.448;9.056;2022-08-19T08:08:31;20.60;99.90
34147;DHT22;20423;49.448;9.056;2022-08-19T08:10:56;20.50;99.90
34147;DHT22;20423;49.448;9.056;2022-08-19T08:13:23;20.80;99.90
34147;DHT22;20423;49.448;9.056;2022-08-19T08:15:49;20.90;99.90
34147;DHT22;20423;49.448;9.056;2022-08-19T08:18:15;20.70;99.90
34147;DHT22;20423;49.448;9.056;2022-08-19T08:21:08;20.40;99.90
34147;DHT22;20423;49.448;9.056;2022-08-19T08:23:35;20.10;99.90
34147;DHT22;20423;49.448;9.056;2022-08-19T08:26:01;19.90;99.90
34147;DHT22;20423;49.448;9.056;2022-08-19T08:28:27;19.80;99.90
34147;DHT22;20423;49.448;9.056;2022-08-19T08:30:54;19.80;99.90
34147;DHT22;20423;49.448;9.056;2022-08-19T08:33:24;20.00;99.90
34147;DHT22;20423;49.448;9.056;2022-08-19T08:35:50;20.10;99.90
34147;DHT22;20423;49.448;9.056;2022-08-19T08:38:15;20.00;99.90
34147;DHT22;20423;49.448;9.056;2022-08-19T08:40:57;20.00;99.90
34147;DHT22;20423;49.448;9.056;2022-08-19T08:43:38;20.30;99.90
34147;DHT22;20423;49.448;9.056;2022-08-19T08:51:51;21.40;99.90
34147;DHT22;20423;49.448;9.056;2022-08-19T08:54:20;21.90;99.90
34147;DHT22;20423;49.448;9.056;2022-08-19T08:56:48;22.30;99.90
34147;DHT22;20423;49.448;9.056;2022-08-19T08:59:33;22.40;99.90
34147;DHT22;20423;49.448;9.056;2022-08-19T09:02:00;22.40;99.90
34147;DHT22;20423;49.448;9.056;2022-08-19T09:04:27;22.50;99.90
34147;DHT22;20423;49.448;9.056;2022-08-19T09:09:42;23.30;99.90
34147;DHT22;20423;49.448;9.056;2022-08-19T09:15:01;23.60;99.90
34147;DHT22;20423;49.448;9.056;2022-08-19T09:17:29;23.60;99.90
34147;DHT22;20423;49.448;9.056;2022-08-19T09:22:38;23.60;99.90
34147;DHT22;20423;49.448;9.056;2022-08-19T09:25:06;23.50;99.90
34147;DHT22;20423;49.448;9.056;2022-08-19T09:27:32;23.40;99.90
34147;DHT22;20423;49.448;9.056;2022-08-19T09:29:58;23.30;99.90
34147;DHT22;20423;49.448;9.056;2022-08-19T09:32:24;23.30;99.90
34147;DHT22;20423;49.448;9.056;2022-08-19T09:34:51;23.70;99.90
34147;DHT22;20423;49.448;9.056;2022-08-19T09:37:20;24.60;99.90
34147;DHT22;20423;49.448;9.056;2022-08-19T09:43:33;24.80;99.90
34147;DHT22;20423;49.448;9.056;2022-08-19T09:46:03;23.90;99.90
34147;DHT22;20423;49.448;9.056;2022-08-19T09:48:35;23.80;99.90
34147;DHT22;20423;49.448;9.056;2022-08-19T09:51:12;24.60;99.90
34147;DHT22;20423;49.448;9.056;2022-08-19T09:53:41;24.80;99.90
34147;DHT22;20423;49.448;9.056;2022-08-19T09:56:08;24.20;99.90
34147;DHT22;20423;49.448;9.056;2022-08-19T09:58:35;23.70;99.90
34147;DHT22;20423;49.448;9.056;2022-08-19T10:04:48;23.40;99.90
34147;DHT22;20423;49.448;9.056;2022-08-19T10:07:43;23.80;99.90
34147;DHT22;20423;49.448;9.056;2022-08-19T10:10:09;24.00;99.90
34147;DHT22;20423;49.448;9.056;2022-08-19T10:12:36;24.40;99.90
34147;DHT22;20423;49.448;9.056;2022-08-19T10:15:04;24.70;99.90
34147;DHT22;20423;49.448;9.056;2022-08-19T10:17:30;25.30;99.90
34147;DHT22;20423;49.448;9.056;2022-08-19T10:19:59;25.50;99.90
34147;DHT22;20423;49.448;9.056;2022-08-19T10:22:25;25.50;99.90
34147;DHT22;20423;49.448;9.056;2022-08-19T10:24:50;26.00;99.90
34147;DHT22;20423;49.448;9.056;2022-08-19T10:27:17;26.20;99.90
34147;DHT22;20423;49.448;9.056;2022-08-19T10:29:42;26.70;99.90
34147;DHT22;20423;49.448;9.056;2022-08-19T10:32:09;26.50;99.90
34147;DHT22;20423;49.448;9.056;2022-08-19T10:34:39;25.50;99.90
34147;DHT22;20423;49.448;9.056;2022-08-19T10:37:05;25.10;99.90
34147;DHT22;20423;49.448;9.056;2022-08-19T10:39:33;25.30;99.90
34147;DHT22;20423;49.448;9.056;2022-08-19T10:42:03;25.50;99.90
34147;DHT22;20423;49.448;9.056;2022-08-19T10:44:29;26.00;99.90
34147;DHT22;20423;49.448;9.056;2022-08-19T10:46:55;26.40;99.90
34147;DHT22;20423;49.448;9.056;2022-08-19T10:49:21;25.80;99.90
34147;DHT22;20423;49.448;9.056;2022-08-19T10:51:49;25.20;99.90
34147;DHT22;20423;49.448;9.056;2022-08-19T10:54:33;25.80;99.90
34147;DHT22;20423;49.448;9.056;2022-08-19T10:57:18;25.80;99.90
34147;DHT22;20423;49.448;9.056;2022-08-19T10:59:43;26.40;99.90
34147;DHT22;20423;49.448;9.056;2022-08-19T11:02:11;26.70;99.90
34147;DHT22;20423;49.448;9.056;2022-08-19T11:04:38;26.70;99.90
34147;DHT22;20423;49.448;9.056;2022-08-19T11:07:05;27.10;99.90
34147;DHT22;20423;49.448;9.056;2022-08-19T11:09:37;27.40;99.90
34147;DHT22;20423;49.448;9.056;2022-08-19T11:12:05;27.10;99.90
34147;DHT22;20423;49.448;9.056;2022-08-19T11:14:34;26.60;99.90
34147;DHT22;20423;49.448;9.056;2022-08-19T11:17:01;26.50;99.90
34147;DHT22;20423;49.448;9.056;2022-08-19T11:19:26;26.20;99.90
34147;DHT22;20423;49.448;9.056;2022-08-19T11:21:52;25.60;99.90
34147;DHT22;20423;49.448;9.056;2022-08-19T11:24:25;25.10;99.90
34147;DHT22;20423;49.448;9.056;2022-08-19T11:26:51;24.90;99.90
34147;DHT22;20423;49.448;9.056;2022-08-19T11:29:20;25.20;99.90
34147;DHT22;20423;49.448;9.056;2022-08-19T11:31:48;26.10;99.90
34147;DHT22;20423;49.448;9.056;2022-08-19T11:34:20;27.10;99.90
34147;DHT22;20423;49.448;9.056;2022-08-19T11:36:47;27.80;99.90
34147;DHT22;20423;49.448;9.056;2022-08-19T11:39:17;27.60;99.90
34147;DHT22;20423;49.448;9.056;2022-08-19T11:41:43;26.80;99.90
34147;DHT22;20423;49.448;9.056;2022-08-19T11:44:10;26.70;99.90
34147;DHT22;20423;49.448;9.056;2022-08-19T11:46:37;27.80;99.90
34147;DHT22;20423;49.448;9.056;2022-08-19T11:49:04;28.70;99.90
34147;DHT22;20423;49.448;9.056;2022-08-19T11:52:04;29.10;99.90
34147;DHT22;20423;49.448;9.056;2022-08-19T11:54:30;28.50;99.90
34147;DHT22;20423;49.448;9.056;2022-08-19T11:56:56;28.90;99.90
34147;DHT22;20423;49.448;9.056;2022-08-19T12:02:47;28.70;99.90
34147;DHT22;20423;49.448;9.056;2022-08-19T12:05:12;27.40;99.90
34147;DHT22;20423;49.448;9.056;2022-08-19T12:07:39;26.30;99.90
34147;DHT22;20423;49.448;9.056;2022-08-19T12:10:15;25.70;99.90
34147;DHT22;20423;49.448;9.056;2022-08-19T12:12:40;25.20;99.90
34147;DHT22;20423;49.448;9.056;2022-08-19T12:15:09;24.90;99.90
34147;DHT22;20423;49.448;9.056;2022-08-19T12:17:36;24.80;99.90
34147;DHT22;20423;49.448;9.056;2022-08-19T12:20:03;24.90;99.90
34147;DHT22;20423;49.448;9.056;2022-08-19T12:22:29;24.80;99.90
34147;DHT22;20423;49.448;9.056;2022-08-19T12:24:54;25.00;99.90
34147;DHT22;20423;49.448;9.056;2022-08-19T12:27:20;25.40;99.90
34147;DHT22;20423;49.448;9.056;2022-08-19T12:29:46;26.10;99.90
34147;DHT22;20423;49.448;9.056;2022-08-19T12:32:12;26.80;99.90
34147;DHT22;20423;49.448;9.056;2022-08-19T12:34:38;27.00;99.90
34147;DHT22;20423;49.448;9.056;2022-08-19T12:37:05;27.00;99.90
34147;DHT22;20423;49.448;9.056;2022-08-19T12:39:39;27.10;99.90
34147;DHT22;20423;49.448;9.056;2022-08-19T12:42:07;26.70;99.90
34147;DHT22;20423;49.448;9.056;2022-08-19T12:44:35;26.30;99.90
34147;DHT22;20423;49.448;9.056;2022-08-19T12:47:01;26.10;99.90
34147;DHT22;20423;49.448;9.056;2022-08-19T12:49:37;25.90;99.90
34147;DHT22;20423;49.448;9.056;2022-08-19T12:52:05;25.80;99.90
34147;DHT22;20423;49.448;9.056;2022-08-19T12:54:32;25.70;99.90
34147;DHT22;20423;49.448;9.056;2022-08-19T12:56:59;25.80;99.90
34147;DHT22;20423;49.448;9.056;2022-08-19T12:59:25;25.70;99.90
34147;DHT22;20423;49.448;9.056;2022-08-19T13:01:51;26.10;99.90
34147;DHT22;20423;49.448;9.056;2022-08-19T13:04:18;26.30;99.90
34147;DHT22;20423;49.448;9.056;2022-08-19T13:06:43;26.60;99.90
34147;DHT22;20423;49.448;9.056;2022-08-19T13:09:09;26.50;99.90
34147;DHT22;20423;49.448;9.056;2022-08-19T13:11:36;26.60;99.90
34147;DHT22;20423;49.448;9.056;2022-08-19T13:14:02;26.80;99.90
34147;DHT22;20423;49.448;9.056;2022-08-19T13:16:29;26.30;99.90
34147;DHT22;20423;49.448;9.056;2022-08-19T13:18:56;26.10;99.90
34147;DHT22;20423;49.448;9.056;2022-08-19T13:21:25;26.00;99.90
34147;DHT22;20423;49.448;9.056;2022-08-19T13:23:51;25.90;99.90
34147;DHT22;20423;49.448;9.056;2022-08-19T13:26:18;25.60;99.90
34147;DHT22;20423;49.448;9.056;2022-08-19T13:28:56;24.90;99.90
34147;DHT22;20423;49.448;9.056;2022-08-19T13:31:41;24.50;99.90
34147;DHT22;20423;49.448;9.056;2022-08-19T13:34:31;24.20;99.90
34147;DHT22;20423;49.448;9.056;2022-08-19T13:36:58;24.00;99.90
34147;DHT22;20423;49.448;9.056;2022-08-19T13:39:24;23.90;99.90
34147;DHT22;20423;49.448;9.056;2022-08-19T13:41:50;23.90;99.90
34147;DHT22;20423;49.448;9.056;2022-08-19T13:44:17;24.10;99.90
34147;DHT22;20423;49.448;9.056;2022-08-19T13:46:44;24.40;99.90
34147;DHT22;20423;49.448;9.056;2022-08-19T13:49:13;24.60;99.90
34147;DHT22;20423;49.448;9.056;2022-08-19T13:51:41;24.80;99.90
34147;DHT22;20423;49.448;9.056;2022-08-19T13:54:08;25.30;99.90
34147;DHT22;20423;49.448;9.056;2022-08-19T13:56:35;25.60;99.90
34147;DHT22;20423;49.448;9.056;2022-08-19T13:59:05;25.80;99.90
34147;DHT22;20423;49.448;9.056;2022-08-19T14:01:30;26.10;99.90
34147;DHT22;20423;49.448;9.056;2022-08-19T14:07:43;26.80;99.90
34147;DHT22;20423;49.448;9.056;2022-08-19T14:10:11;26.70;99.90
34147;DHT22;20423;49.448;9.056;2022-08-19T14:12:38;26.80;99.90
34147;DHT22;20423;49.448;9.056;2022-08-19T14:15:06;27.20;99.90
34147;DHT22;20423;49.448;9.056;2022-08-19T14:17:32;27.10;99.90
34147;DHT22;20423;49.448;9.056;2022-08-19T14:20:04;27.00;99.90
34147;DHT22;20423;49.448;9.056;2022-08-19T14:22:39;26.70;99.90
34147;DHT22;20423;49.448;9.056;2022-08-19T14:25:06;26.60;99.90
34147;DHT22;20423;49.448;9.056;2022-08-19T14:27:34;26.50;99.90
34147;DHT22;20423;49.448;9.056;2022-08-19T14:30:00;26.40;99.90
34147;DHT22;20423;49.448;9.056;2022-08-19T14:32:25;26.20;99.90
34147;DHT22;20423;49.448;9.056;2022-08-19T14:34:52;26.10;99.90
34147;DHT22;20423;49.448;9.056;2022-08-19T14:37:18;26.00;99.90
34147;DHT22;20423;49.448;9.056;2022-08-19T14:39:44;25.90;99.90
34147;DHT22;20423;49.448;9.056;2022-08-19T14:42:11;25.70;99.90
34147;DHT22;20423;49.448;9.056;2022-08-19T14:44:37;25.60;99.90
34147;DHT22;20423;49.448;9.056;2022-08-19T14:47:04;25.50;99.90
34147;DHT22;20423;49.448;9.056;2022-08-19T14:49:30;25.50;99.90
34147;DHT22;20423;49.448;9.056;2022-08-19T14:52:11;25.50;99.90
34147;DHT22;20423;49.448;9.056;2022-08-19T14:54:37;25.50;99.90
34147;DHT22;20423;49.448;9.056;2022-08-19T14:57:03;25.50;99.90
34147;DHT22;20423;49.448;9.056;2022-08-19T14:59:28;25.40;99.80
34147;DHT22;20423;49.448;9.056;2022-08-19T15:01:54;25.60;99.90
34147;DHT22;20423;49.448;9.056;2022-08-19T15:04:20;25.80;99.90
34147;DHT22;20423;49.448;9.056;2022-08-19T15:06:45;26.10;99.90
34147;DHT22;20423;49.448;9.056;2022-08-19T15:09:11;26.30;99.90
34147;DHT22;20423;49.448;9.056;2022-08-19T15:11:37;26.60;99.90
34147;DHT22;20423;49.448;9.056;2022-08-19T15:14:03;26.60;99.90
34147;DHT22;20423;49.448;9.056;2022-08-19T15:16:31;26.70;99.90
34147;DHT22;20423;49.448;9.056;2022-08-19T15:18:58;26.60;99.90
34147;DHT22;20423;49.448;9.056;2022-08-19T15:24:35;26.50;99.90
34147;DHT22;20423;49.448;9.056;2022-08-19T15:27:10;26.40;99.90
34147;DHT22;20423;49.448;9.056;2022-08-19T15:29:35;26.40;99.90
34147;DHT22;20423;49.448;9.056;2022-08-19T15:32:01;26.30;99.90
34147;DHT22;20423;49.448;9.056;2022-08-19T15:34:27;26.20;99.90
34147;DHT22;20423;49.448;9.056;2022-08-19T15:36:53;26.00;99.90
34147;DHT22;20423;49.448;9.056;2022-08-19T15:39:18;26.00;99.90
34147;DHT22;20423;49.448;9.056;2022-08-19T15:41:45;26.10;99.90
34147;DHT22;20423;49.448;9.056;2022-08-19T15:44:14;26.10;99.90
34147;DHT22;20423;49.448;9.056;2022-08-19T15:46:42;25.90;99.90
34147;DHT22;20423;49.448;9.056;2022-08-19T15:49:10;25.70;99.90
34147;DHT22;20423;49.448;9.056;2022-08-19T15:51:37;25.70;99.90
34147;DHT22;20423;49.448;9.056;2022-08-19T15:54:05;25.60;99.90
34147;DHT22;20423;49.448;9.056;2022-08-19T15:56:31;25.50;99.90
34147;DHT22;20423;49.448;9.056;2022-08-19T15:59:15;25.20;99.90
34147;DHT22;20423;49.448;9.056;2022-08-19T16:02:00;25.20;99.90
34147;DHT22;20423;49.448;9.056;2022-08-19T16:04:44;25.10;99.90
34147;DHT22;20423;49.448;9.056;2022-08-19T16:07:28;25.00;99.90
34147;DHT22;20423;49.448;9.056;2022-08-19T16:09:54;24.80;99.90
34147;DHT22;20423;49.448;9.056;2022-08-19T16:12:20;24.70;99.90
34147;DHT22;20423;49.448;9.056;2022-08-19T16:14:46;24.60;99.90
34147;DHT22;20423;49.448;9.056;2022-08-19T16:17:13;24.50;99.90
34147;DHT22;20423;49.448;9.056;2022-08-19T16:19:39;24.40;99.90
34147;DHT22;20423;49.448;9.056;2022-08-19T16:22:05;24.30;99.90
34147;DHT22;20423;49.448;9.056;2022-08-19T16:24:31;24.20;99.90
34147;DHT22;20423;49.448;9.056;2022-08-19T16:27:00;24.10;99.90